sensor_id;sensor_type;location;lat;lon;timestamp;pressure;altitude;pressure_sealevel;temperature;humidity
81608;BME280;71022;48.122;11.576;2024-03-23T00:52:52;95030.31;;;12.06;59.31
81608;BME280;71022;48.122;11.576;2024-03-23T00:55:18;95025.78;;;11.88;59.34
81608;BME280;71022;48.122;11.576;2024-03-23T00:57:45;95029.94;;;12.08;57.84
81608;BME280;71022;48.122;11.576;2024-03-23T01:00:11;95022.44;;;12.05;57.11
81608;BME280;71022;48.122;11.576;2024-03-23T01:02:38;95012.72;;;12.14;56.59
81608;BME280;71022;48.122;11.576;2024-03-23T01:05:04;95009.81;;;12.04;54.94
81608;BME280;71022;48.122;11.576;2024-03-23T01:07:31;95005.56;;;12.10;54.77
81608;BME280;71022;48.122;11.576;2024-03-23T01:09:57;95005.31;;;12.22;54.33
81608;BME280;71022;48.122;11.576;2024-03-23T01:12:24;95003.00;;;12.28;53.86
81608;BME280;71022;48.122;11.576;2024-03-23T01:14:50;94999.53;;;12.34;53.50
81608;BME280;71022;48.122;11.576;2024-03-23T01:17:17;94990.84;;;12.32;53.29
81608;BME280;71022;48.122;11.576;2024-03-23T01:19:43;94999.19;;;12.39;53.21
81608;BME280;71022;48.122;11.576;2024-03-23T01:22:10;94998.00;;;12.40;52.82
81608;BME280;71022;48.122;11.576;2024-03-23T01:24:36;94991.69;;;12.36;53.25
81608;BME280;71022;48.122;11.576;2024-03-23T01:27:02;94995.69;;;12.42;53.19
81608;BME280;71022;48.122;11.576;2024-03-23T01:29:29;94987.78;;;12.41;52.81
81608;BME280;71022;48.122;11.576;2024-03-23T01:31:56;94981.81;;;12.32;53.21
81608;BME280;71022;48.122;11.576;2024-03-23T01:34:22;94978.69;;;12.33;52.99
81608;BME280;71022;48.122;11.576;2024-03-23T01:36:48;94988.59;;;12.41;53.03
81608;BME280;71022;48.122;11.576;2024-03-23T01:39:15;94986.94;;;12.37;52.29
81608;BME280;71022;48.122;11.576;2024-03-23T01:41:41;94976.25;;;12.28;53.31
81608;BME280;71022;48.122;11.576;2024-03-23T01:44:09;94977.50;;;12.34;53.18
81608;BME280;71022;48.122;11.576;2024-03-23T01:46:37;94976.75;;;12.37;53.16
81608;BME280;71022;48.122;11.576;2024-03-23T01:49:04;94971.09;;;12.23;52.98
81608;BME280;71022;48.122;11.576;2024-03-23T01:51:32;94972.69;;;12.24;53.34
81608;BME280;71022;48.122;11.576;2024-03-23T01:54:01;94977.50;;;12.34;53.45
81608;BME280;71022;48.122;11.576;2024-03-23T01:56:34;94973.94;;;12.30;53.02
81608;BME280;71022;48.122;11.576;2024-03-23T01:59:02;94961.41;;;12.36;53.41
81608;BME280;71022;48.122;11.576;2024-03-23T02:01:29;94966.59;;;12.45;52.63
81608;BME280;71022;48.122;11.576;2024-03-23T02:03:56;94962.28;;;12.47;52.98
81608;BME280;71022;48.122;11.576;2024-03-23T02:06:24;94954.31;;;12.35;53.09
81608;BME280;71022;48.122;11.576;2024-03-23T02:08:51;94946.03;;;12.35;53.05
81608;BME280;71022;48.122;11.576;2024-03-23T02:11:17;94946.81;;;12.32;53.35
81608;BME280;71022;48.122;11.576;2024-03-23T02:13:44;94947.22;;;12.34;53.58
81608;BME280;71022;48.122;11.576;2024-03-23T02:16:10;94946.88;;;12.39;53.26
81608;BME280;71022;48.122;11.576;2024-03-23T02:18:37;94945.69;;;12.40;53.47
81608;BME280;71022;48.122;11.576;2024-03-23T02:21:03;94946.13;;;12.42;53.38
81608;BME280;71022;48.122;11.576;2024-03-23T02:23:30;94940.59;;;12.42;53.46
81608;BME280;71022;48.122;11.576;2024-03-23T02:25:56;94935.09;;;12.46;53.36
81608;BME280;71022;48.122;11.576;2024-03-23T02:28:23;94932.66;;;12.34;53.75
81608;BME280;71022;48.122;11.576;2024-03-23T02:30:49;94927.59;;;12.43;53.52
81608;BME280;71022;48.122;11.576;2024-03-23T02:33:16;94928.81;;;12.42;53.28
81608;BME280;71022;48.122;11.576;2024-03-23T02:35:47;94917.78;;;12.42;53.96
81608;BME280;71022;48.122;11.576;2024-03-23T02:38:13;94916.59;;;12.39;53.47
81608;BME280;71022;48.122;11.576;2024-03-23T02:40:40;94905.91;;;12.34;53.78
81608;BME280;71022;48.122;11.576;2024-03-23T02:43:06;94917.69;;;12.31;53.91
81608;BME280;71022;48.122;11.576;2024-03-23T02:45:33;94908.28;;;12.36;53.75
81608;BME280;71022;48.122;11.576;2024-03-23T02:47:59;94900.75;;;12.29;54.15
81608;BME280;71022;48.122;11.576;2024-03-23T02:50:25;94906.63;;;12.24;54.04
81608;BME280;71022;48.122;11.576;2024-03-23T02:52:52;94901.88;;;12.25;53.90
81608;BME280;71022;48.122;11.576;2024-03-23T02:55:18;94907.38;;;12.21;54.09
81608;BME280;71022;48.122;11.576;2024-03-23T02:57:44;94903.41;;;12.15;54.56
81608;BME280;71022;48.122;11.576;2024-03-23T03:00:11;94904.22;;;12.19;54.87
81608;BME280;71022;48.122;11.576;2024-03-23T03:02:37;94902.13;;;12.05;55.18
81608;BME280;71022;48.122;11.576;2024-03-23T03:05:04;94900.97;;;12.10;56.04
81608;BME280;71022;48.122;11.576;2024-03-23T03:07:32;94897.00;;;12.04;55.29
81608;BME280;71022;48.122;11.576;2024-03-23T03:10:01;94894.69;;;12.06;55.52
81608;BME280;71022;48.122;11.576;2024-03-23T03:12:27;94886.78;;;12.04;55.44
81608;BME280;71022;48.122;11.576;2024-03-23T03:14:54;94889.50;;;12.01;55.63
81608;BME280;71022;48.122;11.576;2024-03-23T03:17:20;94887.97;;;12.07;55.80
81608;BME280;71022;48.122;11.576;2024-03-23T03:19:46;94876.50;;;11.98;55.77
81608;BME280;71022;48.122;11.576;2024-03-23T03:22:13;94885.19;;;12.00;56.04
81608;BME280;71022;48.122;11.576;2024-03-23T03:24:39;94882.75;;;11.95;55.88
81608;BME280;71022;48.122;11.576;2024-03-23T03:27:06;94877.22;;;11.88;56.58
81608;BME280;71022;48.122;11.576;2024-03-23T03:29:33;94884.28;;;11.89;56.10
81608;BME280;71022;48.122;11.576;2024-03-23T03:32:04;94869.63;;;11.78;56.96
81608;BME280;71022;48.122;11.576;2024-03-23T03:34:31;94880.25;;;11.76;56.78
81608;BME280;71022;48.122;11.576;2024-03-23T03:36:58;94879.47;;;11.79;56.86
81608;BME280;71022;48.122;11.576;2024-03-23T03:39:24;94872.56;;;11.58;57.36
81608;BME280;71022;48.122;11.576;2024-03-23T03:41:51;94870.00;;;11.73;56.86
81608;BME280;71022;48.122;11.576;2024-03-23T03:44:17;94864.09;;;11.71;57.12
81608;BME280;71022;48.122;11.576;2024-03-23T03:46:44;94866.84;;;11.71;57.23
81608;BME280;71022;48.122;11.576;2024-03-23T03:49:10;94863.63;;;11.68;56.93
81608;BME280;71022;48.122;11.576;2024-03-23T03:51:36;94854.88;;;11.59;57.66
81608;BME280;71022;48.122;11.576;2024-03-23T03:54:03;94848.63;;;11.62;56.97
81608;BME280;71022;48.122;11.576;2024-03-23T03:56:29;94845.84;;;11.55;57.73
81608;BME280;71022;48.122;11.576;2024-03-23T03:58:56;94848.63;;;11.62;57.12
81608;BME280;71022;48.122;11.576;2024-03-23T04:01:22;94841.91;;;11.56;57.24
81608;BME280;71022;48.122;11.576;2024-03-23T04:03:48;94850.97;;;11.60;57.45
81608;BME280;71022;48.122;11.576;2024-03-23T04:06:18;94835.59;;;11.52;57.57
81608;BME280;71022;48.122;11.576;2024-03-23T04:08:44;94834.44;;;11.57;57.25
81608;BME280;71022;48.122;11.576;2024-03-23T04:11:10;94831.31;;;11.58;57.35
81608;BME280;71022;48.122;11.576;2024-03-23T04:13:37;94832.84;;;11.52;57.35
81608;BME280;71022;48.122;11.576;2024-03-23T04:16:03;94820.25;;;11.51;57.82
81608;BME280;71022;48.122;11.576;2024-03-23T04:18:30;94822.56;;;11.46;57.72
81608;BME280;71022;48.122;11.576;2024-03-23T04:20:56;94811.16;;;11.47;57.77
81608;BME280;71022;48.122;11.576;2024-03-23T04:23:22;94808.91;;;11.56;57.13
81608;BME280;71022;48.122;11.576;2024-03-23T04:25:49;94803.75;;;11.51;56.91
81608;BME280;71022;48.122;11.576;2024-03-23T04:28:15;94801.06;;;11.58;56.35
81608;BME280;71022;48.122;11.576;2024-03-23T04:30:42;94788.88;;;11.59;56.27
81608;BME280;71022;48.122;11.576;2024-03-23T04:33:08;94784.59;;;11.58;56.06
81608;BME280;71022;48.122;11.576;2024-03-23T04:35:34;94779.13;;;11.65;56.25
81608;BME280;71022;48.122;11.576;2024-03-23T04:38:01;94776.38;;;11.65;55.80
81608;BME280;71022;48.122;11.576;2024-03-23T04:40:27;94774.06;;;11.68;55.80
81608;BME280;71022;48.122;11.576;2024-03-23T04:42:54;94770.88;;;11.65;56.13
81608;BME280;71022;48.122;11.576;2024-03-23T04:45:20;94772.88;;;11.68;55.57
81608;BME280;71022;48.122;11.576;2024-03-23T04:47:48;94768.56;;;11.68;55.79
81608;BME280;71022;48.122;11.576;2024-03-23T04:50:15;94770.91;;;11.69;55.30
81608;BME280;71022;48.122;11.576;2024-03-23T04:52:41;94763.13;;;11.75;55.56
81608;BME280;71022;48.122;11.576;2024-03-23T04:55:09;94757.63;;;11.75;55.02
81608;BME280;71022;48.122;11.576;2024-03-23T04:57:35;94758.38;;;11.72;55.24
81608;BME280;71022;48.122;11.576;2024-03-23T05:00:02;94752.06;;;11.68;55.23
81608;BME280;71022;48.122;11.576;2024-03-23T05:02:30;94752.81;;;11.64;55.34
81608;BME280;71022;48.122;11.576;2024-03-23T05:04:58;94733.97;;;11.66;55.54
81608;BME280;71022;48.122;11.576;2024-03-23T05:07:24;94739.44;;;11.63;55.16
81608;BME280;71022;48.122;11.576;2024-03-23T05:09:51;94735.84;;;11.55;55.77
81608;BME280;71022;48.122;11.576;2024-03-23T05:12:17;94734.66;;;11.56;55.45
81608;BME280;71022;48.122;11.576;2024-03-23T05:14:43;94741.66;;;11.50;55.48
81608;BME280;71022;48.122;11.576;2024-03-23T05:17:10;94735.41;;;11.53;55.70
81608;BME280;71022;48.122;11.576;2024-03-23T05:19:36;94732.25;;;11.51;55.58
81608;BME280;71022;48.122;11.576;2024-03-23T05:22:02;94720.78;;;11.42;55.70
81608;BME280;71022;48.122;11.576;2024-03-23T05:24:29;94724.38;;;11.46;55.62
81608;BME280;71022;48.122;11.576;2024-03-23T05:26:55;94727.44;;;11.41;56.02
81608;BME280;71022;48.122;11.576;2024-03-23T05:29:25;94722.75;;;11.42;56.13
81608;BME280;71022;48.122;11.576;2024-03-23T05:31:51;94723.91;;;11.37;55.94
81608;BME280;71022;48.122;11.576;2024-03-23T05:34:18;94719.53;;;11.33;56.44
81608;BME280;71022;48.122;11.576;2024-03-23T05:36:44;94716.81;;;11.36;56.55
81608;BME280;71022;48.122;11.576;2024-03-23T05:39:10;94716.38;;;11.31;56.45
81608;BME280;71022;48.122;11.576;2024-03-23T05:41:37;94721.88;;;11.31;56.47
81608;BME280;71022;48.122;11.576;2024-03-23T05:44:03;94712.84;;;11.30;56.13
81608;BME280;71022;48.122;11.576;2024-03-23T05:46:30;94714.81;;;11.33;55.96
81608;BME280;71022;48.122;11.576;2024-03-23T05:49:01;94717.19;;;11.31;55.85
81608;BME280;71022;48.122;11.576;2024-03-23T05:51:28;94708.97;;;11.35;56.34
81608;BME280;71022;48.122;11.576;2024-03-23T05:53:54;94711.72;;;11.35;55.88
81608;BME280;71022;48.122;11.576;2024-03-23T05:56:20;94712.47;;;11.32;56.06
81608;BME280;71022;48.122;11.576;2024-03-23T05:58:47;94702.25;;;11.32;56.05
81608;BME280;71022;48.122;11.576;2024-03-23T06:01:14;94691.25;;;11.32;56.10
81608;BME280;71022;48.122;11.576;2024-03-23T06:03:41;94701.13;;;11.37;55.49
81608;BME280;71022;48.122;11.576;2024-03-23T06:06:07;94689.72;;;11.38;55.77
81608;BME280;71022;48.122;11.576;2024-03-23T06:08:38;94681.16;;;11.43;55.07
81608;BME280;71022;48.122;11.576;2024-03-23T06:11:07;94678.78;;;11.45;55.23
81608;BME280;71022;48.122;11.576;2024-03-23T06:13:33;94684.28;;;11.45;55.06
81608;BME280;71022;48.122;11.576;2024-03-23T06:16:01;94682.78;;;11.51;54.75
81608;BME280;71022;48.122;11.576;2024-03-23T06:18:27;94665.91;;;11.56;54.67
81608;BME280;71022;48.122;11.576;2024-03-23T06:20:54;94674.59;;;11.62;54.36
81608;BME280;71022;48.122;11.576;2024-03-23T06:23:20;94657.81;;;11.71;54.08
81608;BME280;71022;48.122;11.576;2024-03-23T06:25:47;94656.22;;;11.70;54.10
81608;BME280;71022;48.122;11.576;2024-03-23T06:28:13;94650.72;;;11.70;54.36
81608;BME280;71022;48.122;11.576;2024-03-23T06:30:40;94645.28;;;11.77;53.86
81608;BME280;71022;48.122;11.576;2024-03-23T06:33:06;94642.16;;;11.82;53.82
81608;BME280;71022;48.122;11.576;2024-03-23T06:35:32;94639.03;;;11.87;54.01
81608;BME280;71022;48.122;11.576;2024-03-23T06:37:59;94628.06;;;11.94;53.58
81608;BME280;71022;48.122;11.576;2024-03-23T06:40:25;94621.03;;;12.00;52.80
81608;BME280;71022;48.122;11.576;2024-03-23T06:42:52;94617.09;;;11.97;53.23
81608;BME280;71022;48.122;11.576;2024-03-23T06:45:18;94601.38;;;12.05;53.34
81608;BME280;71022;48.122;11.576;2024-03-23T06:47:49;94595.91;;;12.12;52.70
81608;BME280;71022;48.122;11.576;2024-03-23T06:50:16;94590.78;;;12.14;52.61
81608;BME280;71022;48.122;11.576;2024-03-23T06:52:43;94591.22;;;12.19;52.27
81608;BME280;71022;48.122;11.576;2024-03-23T06:55:09;94588.06;;;12.21;52.35
81608;BME280;71022;48.122;11.576;2024-03-23T06:57:36;94589.66;;;12.29;52.32
81608;BME280;71022;48.122;11.576;2024-03-23T07:00:02;94577.13;;;12.39;52.70
81608;BME280;71022;48.122;11.576;2024-03-23T07:02:29;94578.31;;;12.41;51.80
81608;BME280;71022;48.122;11.576;2024-03-23T07:04:56;94585.44;;;12.60;51.80
81608;BME280;71022;48.122;11.576;2024-03-23T07:07:22;94588.19;;;12.70;51.50
81608;BME280;71022;48.122;11.576;2024-03-23T07:09:48;94576.00;;;12.75;52.02
81608;BME280;71022;48.122;11.576;2024-03-23T07:12:15;94577.97;;;12.85;51.41
81608;BME280;71022;48.122;11.576;2024-03-23T07:14:41;94582.69;;;12.92;51.47
81608;BME280;71022;48.122;11.576;2024-03-23T07:17:08;94582.28;;;12.97;51.42
81608;BME280;71022;48.122;11.576;2024-03-23T07:19:34;94584.69;;;13.02;51.49
81608;BME280;71022;48.122;11.576;2024-03-23T07:22:02;94576.41;;;13.02;51.49
81608;BME280;71022;48.122;11.576;2024-03-23T07:24:28;94574.09;;;13.11;51.57
81608;BME280;71022;48.122;11.576;2024-03-23T07:26:56;94576.44;;;13.19;51.56
81608;BME280;71022;48.122;11.576;2024-03-23T07:29:24;94575.66;;;13.19;51.88
81608;BME280;71022;48.122;11.576;2024-03-23T07:31:50;94580.34;;;13.32;51.80
81608;BME280;71022;48.122;11.576;2024-03-23T07:34:17;94581.91;;;13.44;51.65
81608;BME280;71022;48.122;11.576;2024-03-23T07:36:43;94592.94;;;13.51;50.95
81608;BME280;71022;48.122;11.576;2024-03-23T07:39:09;94611.84;;;13.56;51.18
81608;BME280;71022;48.122;11.576;2024-03-23T07:41:36;94622.09;;;13.52;50.97
81608;BME280;71022;48.122;11.576;2024-03-23T07:44:02;94639.84;;;13.51;51.60
81608;BME280;71022;48.122;11.576;2024-03-23T07:46:29;94659.16;;;13.41;53.12
81608;BME280;71022;48.122;11.576;2024-03-23T07:48:55;94676.06;;;13.32;54.67
81608;BME280;71022;48.122;11.576;2024-03-23T07:51:22;94686.66;;;13.05;58.57
81608;BME280;71022;48.122;11.576;2024-03-23T07:53:49;94689.72;;;12.75;61.79
81608;BME280;71022;48.122;11.576;2024-03-23T07:56:16;94696.75;;;12.59;63.79
81608;BME280;71022;48.122;11.576;2024-03-23T07:58:44;94703.81;;;12.49;64.29
81608;BME280;71022;48.122;11.576;2024-03-23T08:01:12;94709.31;;;12.42;64.70
81608;BME280;71022;48.122;11.576;2024-03-23T08:03:42;94722.72;;;12.51;65.07
81608;BME280;71022;48.122;11.576;2024-03-23T08:06:10;94715.41;;;12.11;67.97
81608;BME280;71022;48.122;11.576;2024-03-23T08:08:38;94733.38;;;11.91;70.24
81608;BME280;71022;48.122;11.576;2024-03-23T08:11:04;94727.78;;;11.77;71.04
81608;BME280;71022;48.122;11.576;2024-03-23T08:13:31;94745.16;;;11.88;71.57
81608;BME280;71022;48.122;11.576;2024-03-23T08:15:59;94756.09;;;11.81;71.62
81608;BME280;71022;48.122;11.576;2024-03-23T08:18:26;94750.38;;;11.59;72.71
81608;BME280;71022;48.122;11.576;2024-03-23T08:20:57;94766.06;;;11.52;74.32
81608;BME280;71022;48.122;11.576;2024-03-23T08:23:25;94765.72;;;11.60;73.51
81608;BME280;71022;48.122;11.576;2024-03-23T08:25:56;94781.06;;;11.61;73.81
81608;BME280;71022;48.122;11.576;2024-03-23T08:28:23;94781.06;;;11.61;73.55
81608;BME280;71022;48.122;11.576;2024-03-23T08:30:50;94792.19;;;11.35;75.36
81608;BME280;71022;48.122;11.576;2024-03-23T08:33:16;94791.78;;;11.33;76.11
81608;BME280;71022;48.122;11.576;2024-03-23T08:35:43;94819.44;;;11.14;77.18
81608;BME280;71022;48.122;11.576;2024-03-23T08:38:18;94835.16;;;10.80;78.92
81608;BME280;71022;48.122;11.576;2024-03-23T08:40:44;94833.72;;;10.90;77.88
81608;BME280;71022;48.122;11.576;2024-03-23T08:43:11;94844.94;;;10.48;78.49
81608;BME280;71022;48.122;11.576;2024-03-23T08:45:37;94845.25;;;10.73;77.96
81608;BME280;71022;48.122;11.576;2024-03-23T08:48:04;94845.81;;;10.55;76.80
81608;BME280;71022;48.122;11.576;2024-03-23T08:50:30;94858.22;;;10.46;76.78
81608;BME280;71022;48.122;11.576;2024-03-23T08:52:56;94864.66;;;10.31;76.26
81608;BME280;71022;48.122;11.576;2024-03-23T08:55:23;94871.63;;;10.25;76.74
81608;BME280;71022;48.122;11.576;2024-03-23T08:57:49;94880.66;;;10.25;76.18
81608;BME280;71022;48.122;11.576;2024-03-23T09:00:15;94874.50;;;10.09;76.59
81608;BME280;71022;48.122;11.576;2024-03-23T09:02:41;94886.03;;;10.18;76.15
81608;BME280;71022;48.122;11.576;2024-03-23T09:05:08;94889.41;;;10.34;76.46
81608;BME280;71022;48.122;11.576;2024-03-23T09:07:34;94911.69;;;10.29;76.80
81608;BME280;71022;48.122;11.576;2024-03-23T09:10:00;94909.56;;;10.19;77.03
81608;BME280;71022;48.122;11.576;2024-03-23T09:12:26;94916.25;;;10.44;76.14
81608;BME280;71022;48.122;11.576;2024-03-23T09:14:53;94899.44;;;10.23;78.53
81608;BME280;71022;48.122;11.576;2024-03-23T09:17:19;94895.28;;;10.10;78.95
81608;BME280;71022;48.122;11.576;2024-03-23T09:19:46;94894.69;;;10.20;78.59
81608;BME280;71022;48.122;11.576;2024-03-23T09:22:12;94894.97;;;10.38;77.24
81608;BME280;71022;48.122;11.576;2024-03-23T09:24:39;94900.31;;;10.27;78.54
81608;BME280;71022;48.122;11.576;2024-03-23T09:27:05;94900.59;;;10.22;78.27
81608;BME280;71022;48.122;11.576;2024-03-23T09:29:32;94902.06;;;10.16;77.73
81608;BME280;71022;48.122;11.576;2024-03-23T09:31:58;94898.69;;;9.81;79.20
81608;BME280;71022;48.122;11.576;2024-03-23T09:34:24;94906.91;;;10.03;77.81
81608;BME280;71022;48.122;11.576;2024-03-23T09:36:51;94904.56;;;10.02;77.92
81608;BME280;71022;48.122;11.576;2024-03-23T09:39:18;94925.06;;;9.43;80.37
81608;BME280;71022;48.122;11.576;2024-03-23T09:41:45;94936.84;;;9.67;77.96
81608;BME280;71022;48.122;11.576;2024-03-23T09:44:12;94927.25;;;9.57;75.69
81608;BME280;71022;48.122;11.576;2024-03-23T09:46:38;94924.28;;;9.66;75.57
81608;BME280;71022;48.122;11.576;2024-03-23T09:49:07;94954.31;;;9.59;75.00
81608;BME280;71022;48.122;11.576;2024-03-23T09:51:36;94944.81;;;9.53;74.03
81608;BME280;71022;48.122;11.576;2024-03-23T09:54:03;94951.56;;;9.20;73.86
81608;BME280;71022;48.122;11.576;2024-03-23T09:56:29;94947.31;;;9.42;74.78
81608;BME280;71022;48.122;11.576;2024-03-23T09:59:02;94958.06;;;9.51;72.83
81608;BME280;71022;48.122;11.576;2024-03-23T10:01:31;94960.16;;;9.19;72.90
81608;BME280;71022;48.122;11.576;2024-03-23T10:03:58;94971.06;;;9.34;73.15
81608;BME280;71022;48.122;11.576;2024-03-23T10:06:24;94982.72;;;9.12;73.47
81608;BME280;71022;48.122;11.576;2024-03-23T10:08:52;94983.84;;;8.92;73.98
81608;BME280;71022;48.122;11.576;2024-03-23T10:11:18;94982.63;;;9.09;75.24
81608;BME280;71022;48.122;11.576;2024-03-23T10:13:45;94977.63;;;9.30;75.22
81608;BME280;71022;48.122;11.576;2024-03-23T10:16:21;94975.38;;;9.35;77.02
81608;BME280;71022;48.122;11.576;2024-03-23T10:18:48;94973.66;;;9.47;75.62
81608;BME280;71022;48.122;11.576;2024-03-23T10:21:16;94976.09;;;9.13;76.44
81608;BME280;71022;48.122;11.576;2024-03-23T10:23:44;94975.16;;;9.25;76.04
81608;BME280;71022;48.122;11.576;2024-03-23T10:26:20;94978.13;;;9.16;75.22
81608;BME280;71022;48.122;11.576;2024-03-23T10:28:54;94979.09;;;9.08;75.90
81608;BME280;71022;48.122;11.576;2024-03-23T10:31:23;94981.72;;;9.01;76.93
81608;BME280;71022;48.122;11.576;2024-03-23T10:33:49;94994.69;;;9.23;76.53
81608;BME280;71022;48.122;11.576;2024-03-23T10:36:16;94991.16;;;9.42;76.67
81608;BME280;71022;48.122;11.576;2024-03-23T10:39:04;94994.22;;;9.37;76.37
81608;BME280;71022;48.122;11.576;2024-03-23T10:41:31;94986.22;;;9.28;76.02
81608;BME280;71022;48.122;11.576;2024-03-23T10:43:58;94997.56;;;9.11;76.82
81608;BME280;71022;48.122;11.576;2024-03-23T10:46:26;94993.13;;;9.22;75.77
81608;BME280;71022;48.122;11.576;2024-03-23T10:48:52;95023.53;;;9.17;73.12
81608;BME280;71022;48.122;11.576;2024-03-23T10:51:18;95019.94;;;8.63;71.24
81608;BME280;71022;48.122;11.576;2024-03-23T10:53:46;95051.00;;;8.86;69.64
81608;BME280;71022;48.122;11.576;2024-03-23T10:56:14;95041.97;;;9.01;68.56
81608;BME280;71022;48.122;11.576;2024-03-23T10:58:44;95040.41;;;9.19;69.62
81608;BME280;71022;48.122;11.576;2024-03-23T11:01:15;95040.03;;;8.86;69.67
81608;BME280;71022;48.122;11.576;2024-03-23T11:03:46;95044.91;;;8.93;69.36
81608;BME280;71022;48.122;11.576;2024-03-23T11:09:01;95053.66;;;9.17;69.33
81608;BME280;71022;48.122;11.576;2024-03-23T11:11:27;95058.41;;;8.85;69.78
81608;BME280;71022;48.122;11.576;2024-03-23T11:13:57;95066.91;;;9.15;69.43
81608;BME280;71022;48.122;11.576;2024-03-23T11:16:24;95070.38;;;9.12;69.16
81608;BME280;71022;48.122;11.576;2024-03-23T11:18:54;95061.72;;;9.10;70.38
81608;BME280;71022;48.122;11.576;2024-03-23T11:22:01;95078.41;;;9.21;69.88
81608;BME280;71022;48.122;11.576;2024-03-23T11:24:26;95083.41;;;9.34;70.56
81608;BME280;71022;48.122;11.576;2024-03-23T11:26:52;95068.69;;;9.42;70.13
81608;BME280;71022;48.122;11.576;2024-03-23T11:29:19;95045.91;;;9.38;68.89
81608;BME280;71022;48.122;11.576;2024-03-23T11:31:45;95042.03;;;9.59;69.14
81608;BME280;71022;48.122;11.576;2024-03-23T11:34:12;95038.72;;;8.96;70.40
81608;BME280;71022;48.122;11.576;2024-03-23T11:36:39;95049.38;;;9.55;69.34
81608;BME280;71022;48.122;11.576;2024-03-23T11:39:15;95061.06;;;9.52;68.76
81608;BME280;71022;48.122;11.576;2024-03-23T11:41:53;95069.44;;;9.05;69.57
81608;BME280;71022;48.122;11.576;2024-03-23T11:44:24;95078.78;;;9.38;68.74
81608;BME280;71022;48.122;11.576;2024-03-23T11:46:51;95063.34;;;9.30;68.54
81608;BME280;71022;48.122;11.576;2024-03-23T11:49:28;95065.97;;;9.42;69.52
81608;BME280;71022;48.122;11.576;2024-03-23T11:51:56;95068.16;;;9.53;68.88
81608;BME280;71022;48.122;11.576;2024-03-23T11:54:26;95060.69;;;9.34;69.69
81608;BME280;71022;48.122;11.576;2024-03-23T11:56:57;95045.75;;;9.51;68.40
81608;BME280;71022;48.122;11.576;2024-03-23T11:59:34;95049.88;;;9.41;68.39
81608;BME280;71022;48.122;11.576;2024-03-23T12:02:12;95052.03;;;9.51;69.27
81608;BME280;71022;48.122;11.576;2024-03-23T12:04:42;95053.78;;;9.78;68.61
81608;BME280;71022;48.122;11.576;2024-03-23T12:07:13;95056.50;;;9.97;68.80
81608;BME280;71022;48.122;11.576;2024-03-23T12:09:42;95057.03;;;9.84;69.01
81608;BME280;71022;48.122;11.576;2024-03-23T12:12:16;95051.69;;;9.91;67.64
81608;BME280;71022;48.122;11.576;2024-03-23T12:15:00;95050.66;;;9.80;68.29
81608;BME280;71022;48.122;11.576;2024-03-23T12:17:27;95047.06;;;9.57;69.59
81608;BME280;71022;48.122;11.576;2024-03-23T12:19:53;95037.56;;;9.70;69.06
81608;BME280;71022;48.122;11.576;2024-03-23T12:22:20;95044.16;;;9.30;70.35
81608;BME280;71022;48.122;11.576;2024-03-23T12:24:47;95051.91;;;9.63;69.02
81608;BME280;71022;48.122;11.576;2024-03-23T12:27:14;95055.88;;;9.66;70.63
81608;BME280;71022;48.122;11.576;2024-03-23T12:29:41;95043.03;;;9.51;65.99
81608;BME280;71022;48.122;11.576;2024-03-23T12:32:09;95051.97;;;9.48;63.25
81608;BME280;71022;48.122;11.576;2024-03-23T12:34:35;95043.63;;;9.06;65.52
81608;BME280;71022;48.122;11.576;2024-03-23T12:37:02;95027.66;;;9.27;62.58
81608;BME280;71022;48.122;11.576;2024-03-23T12:39:28;95021.91;;;9.51;59.69
81608;BME280;71022;48.122;11.576;2024-03-23T12:41:54;95031.06;;;9.39;60.36
81608;BME280;71022;48.122;11.576;2024-03-23T12:44:21;95038.34;;;8.97;60.52
81608;BME280;71022;48.122;11.576;2024-03-23T12:46:47;95024.63;;;9.32;59.52
81608;BME280;71022;48.122;11.576;2024-03-23T12:49:14;95037.19;;;8.98;59.82
81608;BME280;71022;48.122;11.576;2024-03-23T12:51:42;95036.63;;;9.08;59.47
81608;BME280;71022;48.122;11.576;2024-03-23T12:54:12;95037.59;;;9.16;60.01
81608;BME280;71022;48.122;11.576;2024-03-23T12:56:38;95040.19;;;9.28;58.59
81608;BME280;71022;48.122;11.576;2024-03-23T12:59:05;95030.84;;;9.48;59.88
81608;BME280;71022;48.122;11.576;2024-03-23T13:01:31;95031.91;;;9.82;58.72
81608;BME280;71022;48.122;11.576;2024-03-23T13:03:58;95043.59;;;10.17;58.15
81608;BME280;71022;48.122;11.576;2024-03-23T13:06:25;95034.03;;;10.11;58.51
81608;BME280;71022;48.122;11.576;2024-03-23T13:08:53;95045.03;;;10.11;58.24
81608;BME280;71022;48.122;11.576;2024-03-23T13:11:20;95047.75;;;10.11;58.97
81608;BME280;71022;48.122;11.576;2024-03-23T13:13:47;95038.22;;;9.82;59.40
81608;BME280;71022;48.122;11.576;2024-03-23T13:16:13;95039.06;;;9.86;59.19
81608;BME280;71022;48.122;11.576;2024-03-23T13:18:39;95027.50;;;9.96;57.99
81608;BME280;71022;48.122;11.576;2024-03-23T13:21:05;95016.63;;;9.81;56.92
81608;BME280;71022;48.122;11.576;2024-03-23T13:23:32;95014.13;;;9.95;56.19
81608;BME280;71022;48.122;11.576;2024-03-23T13:26:00;95008.38;;;9.81;54.55
81608;BME280;71022;48.122;11.576;2024-03-23T13:28:26;94991.59;;;10.05;55.48
81608;BME280;71022;48.122;11.576;2024-03-23T13:30:53;94999.28;;;9.96;56.44
81608;BME280;71022;48.122;11.576;2024-03-23T13:33:20;94999.59;;;9.72;55.12
81608;BME280;71022;48.122;11.576;2024-03-23T13:35:56;95010.41;;;9.84;55.61
81608;BME280;71022;48.122;11.576;2024-03-23T13:38:23;94997.34;;;9.77;54.69
81608;BME280;71022;48.122;11.576;2024-03-23T13:41:00;95004.94;;;10.07;54.24
81608;BME280;71022;48.122;11.576;2024-03-23T13:43:27;95006.22;;;9.90;52.92
81608;BME280;71022;48.122;11.576;2024-03-23T13:45:58;95002.88;;;9.58;54.00
81608;BME280;71022;48.122;11.576;2024-03-23T13:48:26;95010.75;;;10.01;54.04